createdAt,value
2019-01-25T00:00:59.906Z,7.3
2019-01-25T00:02:01.430Z,7.2
2019-01-25T00:03:09.782Z,7.3
2019-01-25T00:04:11.890Z,7.2
2019-01-25T00:05:13.432Z,7.2
2019-01-25T00:06:14.878Z,7.2
2019-01-25T00:07:16.417Z,7.1
2019-01-25T00:08:17.956Z,7.1
2019-01-25T00:09:19.414Z,7.1
2019-01-25T00:10:21.044Z,7
2019-01-25T00:11:22.894Z,6.9
2019-01-25T00:12:24.442Z,6.9
2019-01-25T00:13:25.979Z,6.8
2019-01-25T00:14:27.640Z,6.8
2019-01-25T00:15:29.473Z,6.7
2019-01-25T00:16:31.126Z,6.7
2019-01-25T00:17:32.672Z,6.7
2019-01-25T00:18:34.231Z,6.7
2019-01-25T00:19:35.747Z,6.6
2019-01-25T00:20:38.318Z,6.6
2019-01-25T00:21:39.860Z,6.6
2019-01-25T00:22:41.414Z,6.5
2019-01-25T00:23:45.722Z,6.5
2019-01-25T00:24:48.700Z,6.4
2019-01-25T00:25:50.231Z,6.4
2019-01-25T00:26:51.768Z,6.3
2019-01-25T00:27:53.415Z,6.4
2019-01-25T00:28:55.426Z,6.4
2019-01-25T00:29:56.972Z,6.2
2019-01-25T00:30:58.658Z,6.2
2019-01-25T00:32:00.196Z,6.2
2019-01-25T00:33:01.741Z,6.1
2019-01-25T00:34:03.289Z,6
2019-01-25T00:35:04.842Z,5.9
2019-01-25T00:36:06.369Z,5.9
2019-01-25T00:37:07.913Z,5.9
2019-01-25T00:38:09.557Z,5.8
2019-01-25T00:39:11.365Z,5.9
2019-01-25T00:40:12.953Z,5.8
2019-01-25T00:41:14.492Z,5.8
2019-01-25T00:42:16.039Z,5.8
2019-01-25T00:43:18.097Z,5.8
2019-01-25T00:44:19.531Z,5.8
2019-01-25T00:45:21.385Z,5.7
2019-01-25T00:46:22.927Z,5.7
2019-01-25T00:47:24.463Z,5.7
2019-01-25T00:48:26.009Z,5.7
2019-01-25T00:49:27.963Z,5.8
2019-01-25T00:50:29.814Z,5.7
2019-01-25T00:51:31.363Z,5.6
2019-01-25T00:52:32.883Z,5.6
2019-01-25T00:53:34.658Z,5.6
2019-01-25T00:54:36.193Z,5.6
2019-01-25T00:55:37.739Z,5.6
2019-01-25T00:56:39.383Z,5.6
2019-01-25T00:57:40.930Z,5.6
2019-01-25T00:58:42.461Z,5.5
2019-01-25T00:59:44.105Z,5.5
2019-01-25T01:00:45.755Z,5.3
2019-01-25T01:01:47.505Z,5.3
2019-01-25T01:02:49.055Z,5.4
2019-01-25T01:03:50.585Z,5.3
2019-01-25T01:04:52.131Z,5.3
2019-01-25T01:05:53.777Z,5.3
2019-01-25T01:06:55.423Z,5.3
2019-01-25T01:07:59.581Z,5.3
2019-01-25T01:09:04.857Z,5.3
2019-01-25T01:10:13.729Z,5.3
2019-01-25T01:11:15.830Z,5.2
2019-01-25T01:12:17.261Z,5.3
2019-01-25T01:13:18.813Z,5.3
2019-01-25T01:14:20.319Z,5.3
2019-01-25T01:15:22.412Z,5.3
2019-01-25T01:16:24.190Z,5.3
2019-01-25T01:17:26.267Z,5.3
2019-01-25T01:18:27.747Z,5.3
2019-01-25T01:19:29.301Z,5.2
2019-01-25T01:20:31.241Z,5.3
2019-01-25T01:21:33.120Z,5.2
2019-01-25T01:22:34.644Z,5.2
2019-01-25T01:23:37.155Z,5.1
2019-01-25T01:24:38.755Z,5.1
2019-01-25T01:25:41.314Z,5.2
2019-01-25T01:26:43.468Z,5.2
2019-01-25T01:27:45.117Z,5.3
2019-01-25T01:28:46.659Z,5.1
2019-01-25T01:29:51.174Z,5
2019-01-25T01:30:53.388Z,4.9
2019-01-25T01:31:54.975Z,4.8
2019-01-25T01:32:56.727Z,4.8
2019-01-25T01:34:05.024Z,4.9
2019-01-25T01:35:06.564Z,4.9
2019-01-25T01:36:08.321Z,4.9
2019-01-25T01:37:09.758Z,4.9
2019-01-25T01:38:11.306Z,4.9
2019-01-25T01:39:13.350Z,5
2019-01-25T01:40:21.486Z,4.9
2019-01-25T01:41:23.291Z,4.9
2019-01-25T01:42:24.793Z,4.9
2019-01-25T01:43:26.274Z,4.9
2019-01-25T01:44:27.823Z,4.8
2019-01-25T01:45:29.393Z,4.8
2019-01-25T01:46:30.904Z,4.8
2019-01-25T01:47:32.696Z,4.8
2019-01-25T01:48:34.194Z,4.8
2019-01-25T01:49:35.634Z,4.7
2019-01-25T01:50:37.032Z,4.7
2019-01-25T01:51:38.432Z,4.6
2019-01-25T01:52:39.962Z,4.5
2019-01-25T01:53:41.400Z,4.5
2019-01-25T01:54:43.456Z,4.5
2019-01-25T01:55:44.889Z,4.6
2019-01-25T01:56:46.746Z,4.6
2019-01-25T01:57:48.486Z,4.5
2019-01-25T01:58:50.034Z,4.4
2019-01-25T01:59:51.581Z,4.4
2019-01-25T02:00:53.038Z,4.5
2019-01-25T02:01:54.564Z,4.4
2019-01-25T02:02:56.307Z,4.3
2019-01-25T02:03:57.856Z,4.4
2019-01-25T02:04:59.290Z,4.3
2019-01-25T02:06:00.741Z,4.3
2019-01-25T02:07:02.276Z,4.2
2019-01-25T02:08:03.829Z,4.4
2019-01-25T02:09:05.875Z,4.5
2019-01-25T02:10:07.418Z,4.5
2019-01-25T02:11:08.832Z,4.4
2019-01-25T02:12:12.330Z,4.3
2019-01-25T02:13:13.780Z,4.2
2019-01-25T02:14:15.230Z,4.3
2019-01-25T02:15:18.238Z,4.3
2019-01-25T02:16:19.739Z,4.3
2019-01-25T02:17:21.190Z,4.2
2019-01-25T02:18:22.683Z,4.3
2019-01-25T02:19:24.168Z,4.2
2019-01-25T02:20:25.687Z,4.2
2019-01-25T02:21:27.363Z,4.2
2019-01-25T02:22:28.796Z,4.2
2019-01-25T02:23:32.765Z,4.1
2019-01-25T02:24:34.237Z,3.9
2019-01-25T02:25:35.764Z,3.9
2019-01-25T02:26:37.431Z,3.9
2019-01-25T02:27:38.965Z,3.9
2019-01-25T02:28:41.627Z,3.9
2019-01-25T02:29:43.078Z,3.9
2019-01-25T02:30:45.395Z,4.1
2019-01-25T02:31:46.895Z,4
2019-01-25T02:32:49.301Z,4
2019-01-25T02:33:53.555Z,4
2019-01-25T02:34:57.339Z,4
2019-01-25T02:35:58.789Z,4.1
2019-01-25T02:37:00.940Z,4.1
2019-01-25T02:38:02.701Z,4.1
2019-01-25T02:39:04.435Z,4.1
2019-01-25T02:40:05.875Z,4
2019-01-25T02:41:07.429Z,3.9
2019-01-25T02:42:08.946Z,3.9
2019-01-25T02:43:10.411Z,3.9
2019-01-25T02:44:11.950Z,3.8
2019-01-25T02:45:13.806Z,3.6
2019-01-25T02:46:15.341Z,3.9
2019-01-25T02:47:17.049Z,3.9
2019-01-25T02:48:18.550Z,3.8
2019-01-25T02:49:20.382Z,3.6
2019-01-25T02:50:21.902Z,3.8
2019-01-25T02:51:23.473Z,3.9
2019-01-25T02:52:24.911Z,3.9
2019-01-25T02:53:26.335Z,4
2019-01-25T02:54:27.797Z,4
2019-01-25T02:55:31.885Z,3.9
2019-01-25T02:56:33.340Z,3.9
2019-01-25T02:57:35.285Z,3.9
2019-01-25T02:58:36.721Z,3.7
2019-01-25T02:59:39.174Z,3.6
2019-01-25T03:00:40.579Z,3.6
2019-01-25T03:01:42.103Z,3.5
2019-01-25T03:02:43.607Z,3.5
2019-01-25T03:03:45.051Z,3.4
2019-01-25T03:04:46.697Z,3.4
2019-01-25T03:05:48.147Z,3.5
2019-01-25T03:06:49.655Z,3.6
2019-01-25T03:07:51.114Z,3.6
2019-01-25T03:08:52.660Z,3.7
2019-01-25T03:09:54.478Z,3.7
2019-01-25T03:10:56.233Z,3.7
2019-01-25T03:11:57.763Z,3.7
2019-01-25T03:12:59.171Z,3.5
2019-01-25T03:14:00.567Z,3.4
2019-01-25T03:15:02.037Z,3.4
2019-01-25T03:16:03.461Z,3.4
2019-01-25T03:17:04.845Z,3.5
2019-01-25T03:18:06.249Z,3.6
2019-01-25T03:19:07.651Z,3.7
2019-01-25T03:20:09.297Z,3.7
2019-01-25T03:21:10.709Z,3.7
2019-01-25T03:22:12.208Z,3.7
2019-01-25T03:23:13.749Z,3.7
2019-01-25T03:24:15.294Z,3.9
2019-01-25T03:25:16.841Z,3.8
2019-01-25T03:26:18.473Z,3.5
2019-01-25T03:27:19.893Z,3.4
2019-01-25T03:28:21.355Z,3.4
2019-01-25T03:29:22.807Z,3.6
2019-01-25T03:30:24.355Z,3.4
2019-01-25T03:31:25.998Z,3.4
2019-01-25T03:32:28.365Z,3.5
2019-01-25T03:33:29.887Z,3.4
2019-01-25T03:34:31.609Z,3.3
2019-01-25T03:35:33.179Z,3.2
2019-01-25T03:36:37.695Z,3.2
2019-01-25T03:37:39.138Z,3.1
2019-01-25T03:38:40.579Z,3.1
2019-01-25T03:39:42.115Z,3.1
2019-01-25T03:40:43.669Z,3.2
2019-01-25T03:41:45.226Z,3.4
2019-01-25T03:42:46.745Z,3.4
2019-01-25T03:43:48.259Z,3.5
2019-01-25T03:44:49.725Z,3.4
2019-01-25T03:45:51.269Z,3.3
2019-01-25T03:46:53.125Z,3.3
2019-01-25T03:47:55.797Z,3.2
2019-01-25T03:48:58.366Z,3.2
2019-01-25T03:50:00.062Z,3.2
2019-01-25T03:51:01.552Z,3.1
2019-01-25T03:52:02.939Z,3.1
2019-01-25T03:53:04.380Z,3
2019-01-25T03:54:05.783Z,3.2
2019-01-25T03:55:07.184Z,3.1
2019-01-25T03:56:08.617Z,3
2019-01-25T03:57:10.037Z,3
2019-01-25T03:58:11.446Z,2.9
2019-01-25T03:59:15.324Z,2.9
2019-01-25T04:00:17.100Z,2.7
2019-01-25T04:01:18.758Z,2.8
2019-01-25T04:02:20.145Z,2.8
2019-01-25T04:03:21.554Z,2.7
2019-01-25T04:04:22.966Z,2.7
2019-01-25T04:05:24.699Z,2.8
2019-01-25T04:06:27.320Z,2.9
2019-01-25T04:07:28.895Z,2.8
2019-01-25T04:08:30.425Z,3
2019-01-25T04:09:34.320Z,3
2019-01-25T04:10:35.738Z,3.1
2019-01-25T04:11:37.318Z,3.4
2019-01-25T04:12:39.268Z,3.4
2019-01-25T04:13:40.686Z,3.2
2019-01-25T04:14:42.152Z,3.3
2019-01-25T04:15:45.220Z,3.2
2019-01-25T04:16:46.778Z,3
2019-01-25T04:17:48.213Z,3
2019-01-25T04:18:49.852Z,3
2019-01-25T04:19:51.296Z,3.1
2019-01-25T04:20:52.740Z,3.2
2019-01-25T04:21:54.392Z,3.2
2019-01-25T04:22:55.820Z,3.2
2019-01-25T04:23:57.369Z,3.1
2019-01-25T04:24:58.935Z,3.3
2019-01-25T04:26:00.454Z,3
2019-01-25T04:27:01.989Z,2.9
2019-01-25T04:28:03.442Z,2.8
2019-01-25T04:29:04.976Z,2.7
2019-01-25T04:30:06.378Z,2.7
2019-01-25T04:31:10.290Z,2.8
2019-01-25T04:32:11.738Z,2.9
2019-01-25T04:33:16.067Z,2.8
2019-01-25T04:34:17.470Z,2.7
2019-01-25T04:35:18.894Z,2.6
2019-01-25T04:36:20.298Z,2.9
2019-01-25T04:37:21.764Z,3
2019-01-25T04:38:23.176Z,3
2019-01-25T04:39:24.598Z,2.9
2019-01-25T04:40:26.017Z,3.1
2019-01-25T04:41:27.431Z,3
2019-01-25T04:42:28.867Z,3
2019-01-25T04:43:30.295Z,2.9
2019-01-25T04:44:31.763Z,2.8
2019-01-25T04:45:35.555Z,2.8
2019-01-25T04:46:36.977Z,2.7
2019-01-25T04:47:38.435Z,2.7
2019-01-25T04:48:39.852Z,2.7
2019-01-25T04:49:41.279Z,2.8
2019-01-25T04:50:42.698Z,2.9
2019-01-25T04:51:44.111Z,3
2019-01-25T04:52:45.712Z,2.8
2019-01-25T04:53:47.332Z,2.6
2019-01-25T04:54:48.869Z,2.5
2019-01-25T04:55:50.272Z,2.5
2019-01-25T04:56:51.749Z,2.5
2019-01-25T04:57:53.227Z,2.5
2019-01-25T04:58:54.855Z,2.3
2019-01-25T04:59:56.492Z,2.5
2019-01-25T05:00:58.029Z,2.4
2019-01-25T05:02:00.037Z,2.6
2019-01-25T05:03:01.623Z,2.8
2019-01-25T05:04:03.179Z,2.7
2019-01-25T05:05:04.714Z,2.6
2019-01-25T05:06:06.237Z,2.4
2019-01-25T05:07:07.641Z,2.4
2019-01-25T05:08:09.235Z,2.5
2019-01-25T05:09:10.885Z,2.6
2019-01-25T05:10:14.428Z,2.8
2019-01-25T05:11:19.836Z,2.7
2019-01-25T05:12:24.395Z,2.8
2019-01-25T05:13:25.878Z,2.6
2019-01-25T05:14:27.295Z,2.5
2019-01-25T05:15:28.717Z,2.5
2019-01-25T05:16:30.163Z,2.5
2019-01-25T05:17:31.595Z,2.4
2019-01-25T05:18:33.029Z,2.3
2019-01-25T05:19:34.435Z,2.3
2019-01-25T05:20:35.929Z,2.3
2019-01-25T05:21:37.347Z,2.6
2019-01-25T05:22:38.776Z,2.7
2019-01-25T05:23:40.877Z,2.7
2019-01-25T05:24:42.323Z,2.7
2019-01-25T05:25:43.756Z,2.7
2019-01-25T05:26:45.808Z,2.8
2019-01-25T05:27:47.264Z,2.7
2019-01-25T05:28:48.901Z,2.7
2019-01-25T05:29:50.292Z,2.5
2019-01-25T05:30:51.781Z,2.5
2019-01-25T05:31:53.331Z,2.5
2019-01-25T05:32:54.876Z,2.6
2019-01-25T05:33:56.424Z,2.6
2019-01-25T05:34:58.068Z,2.5
2019-01-25T05:36:00.612Z,2.4
2019-01-25T05:37:02.019Z,2.5
2019-01-25T05:38:03.505Z,2.4
2019-01-25T05:39:05.160Z,2.3
2019-01-25T05:40:07.620Z,2.2
2019-01-25T05:41:09.155Z,2.4
2019-01-25T05:42:11.707Z,2.3
2019-01-25T05:43:15.209Z,2.2
2019-01-25T05:44:16.860Z,2.2
2019-01-25T05:45:18.399Z,2.2
2019-01-25T05:46:19.806Z,2.3
2019-01-25T05:47:23.346Z,2.2
2019-01-25T05:48:24.877Z,2.2
2019-01-25T05:49:26.412Z,2.6
2019-01-25T05:50:29.912Z,2.7
2019-01-25T05:51:33.651Z,2.4
2019-01-25T05:52:35.324Z,2.4
2019-01-25T05:53:36.990Z,2.4
2019-01-25T05:54:38.667Z,2.3
2019-01-25T05:55:40.076Z,2.4
2019-01-25T05:56:41.718Z,2.2
2019-01-25T05:57:43.201Z,2.3
2019-01-25T05:58:45.018Z,2.5
2019-01-25T05:59:46.654Z,2.5
2019-01-25T06:00:48.072Z,2.4
2019-01-25T06:01:52.634Z,2.3
2019-01-25T06:02:54.150Z,2.5
2019-01-25T06:03:55.692Z,2.6
2019-01-25T06:04:57.536Z,3
2019-01-25T06:05:59.062Z,3.1
2019-01-25T06:07:00.827Z,3.2
2019-01-25T06:08:02.371Z,3
2019-01-25T06:09:03.916Z,2.9
2019-01-25T06:10:05.570Z,2.9
2019-01-25T06:11:07.210Z,2.8
2019-01-25T06:12:08.746Z,3
2019-01-25T06:13:10.396Z,2.8
2019-01-25T06:14:11.921Z,2.9
2019-01-25T06:15:13.379Z,2.5
2019-01-25T06:16:17.510Z,2.7
2019-01-25T06:17:18.922Z,2.7
2019-01-25T06:18:20.344Z,2.6
2019-01-25T06:19:23.998Z,2.5
2019-01-25T06:20:25.456Z,2.5
2019-01-25T06:21:26.878Z,2.9
2019-01-25T06:22:28.308Z,2.8
2019-01-25T06:23:29.712Z,2.8
2019-01-25T06:24:31.585Z,2.9
2019-01-25T06:25:35.238Z,3.1
2019-01-25T06:26:37.875Z,3
2019-01-25T06:27:41.687Z,3.2
2019-01-25T06:28:43.113Z,3.1
2019-01-25T06:29:44.700Z,3
2019-01-25T06:30:46.161Z,3
2019-01-25T06:31:47.554Z,3.1
2019-01-25T06:32:48.964Z,3
2019-01-25T06:33:50.662Z,3.1
2019-01-25T06:34:52.565Z,3.1
2019-01-25T06:35:54.033Z,3.2
2019-01-25T06:36:55.442Z,3.4
2019-01-25T06:37:56.945Z,3.4
2019-01-25T06:38:58.430Z,3.3
2019-01-25T06:39:59.935Z,3.2
2019-01-25T06:41:01.565Z,3.2
2019-01-25T06:42:03.091Z,3.3
2019-01-25T06:43:04.505Z,3.1
2019-01-25T06:44:06.100Z,2.7
2019-01-25T06:45:07.950Z,2.9
2019-01-25T06:46:09.597Z,3.2
2019-01-25T06:47:11.117Z,3
2019-01-25T06:48:12.586Z,2.8
2019-01-25T06:49:14.023Z,2.8
2019-01-25T06:50:15.539Z,2.7
2019-01-25T06:51:17.099Z,2.6
2019-01-25T06:52:18.525Z,2.4
2019-01-25T06:53:19.983Z,2.5
2019-01-25T06:54:21.397Z,2.7
2019-01-25T06:55:22.813Z,3.1
2019-01-25T06:56:24.322Z,2.8
2019-01-25T06:57:25.849Z,2.9
2019-01-25T06:58:27.291Z,3
2019-01-25T06:59:28.729Z,3
2019-01-25T07:00:31.267Z,2.9
2019-01-25T07:01:32.836Z,2.8
2019-01-25T07:02:34.371Z,2.8
2019-01-25T07:03:35.825Z,3
2019-01-25T07:04:37.777Z,2.9
2019-01-25T07:05:39.236Z,2.8
2019-01-25T07:06:40.859Z,2.6
2019-01-25T07:07:42.404Z,2.9
2019-01-25T07:08:43.837Z,2.7
2019-01-25T07:09:45.593Z,2.7
2019-01-25T07:10:47.134Z,3.7
2019-01-25T07:12:00.297Z,5.4
2019-01-25T07:13:01.803Z,7.3
2019-01-25T07:14:07.505Z,8.4
2019-01-25T07:15:09.315Z,8.9
2019-01-25T07:16:11.115Z,9.5
2019-01-25T07:17:15.317Z,9.7
2019-01-25T07:18:16.779Z,10
2019-01-25T07:19:21.621Z,9.9
2019-01-25T07:20:23.029Z,10.1
2019-01-25T07:21:25.397Z,10.4
2019-01-25T07:22:26.853Z,10.4
2019-01-25T07:23:29.653Z,10.8
2019-01-25T07:24:33.507Z,10.7
2019-01-25T07:25:37.041Z,11.2
2019-01-25T07:26:38.439Z,11.7
2019-01-25T07:27:42.155Z,11.4
2019-01-25T07:31:35.348Z,11.8
2019-01-25T07:32:36.829Z,11.9
2019-01-25T07:33:38.481Z,11.9
2019-01-25T07:34:39.936Z,12.1
2019-01-25T07:35:41.515Z,12.2
2019-01-25T07:36:42.976Z,11.8
2019-01-25T07:37:44.446Z,12.2
2019-01-25T07:38:47.040Z,12
2019-01-25T07:39:48.542Z,11.8
2019-01-25T07:40:50.112Z,11.8
2019-01-25T07:41:58.857Z,11.8
2019-01-25T07:43:05.311Z,12.1
2019-01-25T07:44:07.041Z,12.1
2019-01-25T07:45:10.158Z,12.7
2019-01-25T07:46:13.614Z,12.9
2019-01-25T07:47:15.034Z,13.1
2019-01-25T07:48:16.475Z,13.1
2019-01-25T07:49:22.813Z,13.2
2019-01-25T07:50:24.374Z,13.1
2019-01-25T07:51:25.898Z,12.9
2019-01-25T07:52:29.718Z,12.7
2019-01-25T07:53:31.167Z,12.8
2019-01-25T07:54:33.456Z,13.1
2019-01-25T07:55:34.956Z,13.3
2019-01-25T07:56:36.529Z,13.6
2019-01-25T07:57:39.998Z,13.7
2019-01-25T07:58:42.659Z,14
2019-01-25T07:59:44.288Z,14
2019-01-25T08:00:45.718Z,13.6
2019-01-25T08:01:47.199Z,13.5
2019-01-25T08:02:49.292Z,13.5
2019-01-25T08:03:50.862Z,13.8
2019-01-25T08:04:52.310Z,14
2019-01-25T08:05:54.322Z,14.5
2019-01-25T08:06:58.035Z,14.7
2019-01-25T08:07:59.894Z,15
2019-01-25T08:09:01.486Z,15.1
2019-01-25T08:10:03.208Z,15.1
2019-01-25T08:11:04.765Z,15
2019-01-25T08:12:07.448Z,14.8
2019-01-25T08:13:10.804Z,15
2019-01-25T08:14:12.895Z,15
2019-01-25T08:15:14.916Z,15.2
2019-01-25T08:16:16.318Z,15.3
2019-01-25T08:17:17.830Z,15.1
2019-01-25T08:18:19.346Z,15.4
2019-01-25T08:19:21.084Z,15.4
2019-01-25T08:20:22.645Z,15.3
2019-01-25T08:21:24.994Z,15.3
2019-01-25T08:22:26.518Z,15.2
2019-01-25T08:23:29.168Z,15.2
2019-01-25T08:24:32.450Z,15.2
2019-01-25T08:25:38.327Z,15.3
2019-01-25T08:26:39.877Z,15.3
2019-01-25T08:27:41.416Z,15.3
2019-01-25T08:28:43.333Z,15.3
2019-01-25T08:29:44.812Z,15.3
2019-01-25T08:30:46.794Z,15.4
2019-01-25T08:31:50.646Z,15.1
2019-01-25T08:32:52.134Z,15.1
2019-01-25T08:33:54.864Z,15.2
2019-01-25T08:34:59.334Z,15.1
2019-01-25T08:36:03.382Z,15.3
2019-01-25T08:37:05.220Z,15.4
2019-01-25T08:38:07.790Z,15.5
2019-01-25T08:39:09.336Z,15.4
2019-01-25T08:40:10.910Z,15.4
2019-01-25T08:41:13.684Z,15.4
2019-01-25T08:42:15.966Z,15.4
2019-01-25T08:43:17.646Z,15.4
2019-01-25T08:44:19.213Z,15.4
2019-01-25T08:45:21.766Z,15.4
2019-01-25T08:46:24.433Z,15.5
2019-01-25T08:47:25.907Z,15.5
2019-01-25T08:48:29.145Z,15.4
2019-01-25T08:49:32.865Z,15.6
2019-01-25T08:50:34.659Z,15.7
2019-01-25T08:51:38.616Z,15.7
2019-01-25T08:52:47.546Z,15.6
2019-01-25T08:53:49.207Z,15.4
2019-01-25T08:54:52.361Z,15.5
2019-01-25T08:55:53.855Z,15.5
2019-01-25T08:56:55.574Z,15.4
2019-01-25T08:57:57.245Z,15.5
2019-01-25T08:59:00.067Z,15.6
2019-01-25T09:00:03.541Z,15.6
2019-01-25T09:01:05.001Z,15.6
2019-01-25T09:02:06.532Z,15.6
2019-01-25T09:03:08.343Z,15.6
2019-01-25T09:04:16.293Z,15.6
2019-01-25T09:05:18.173Z,15.6
2019-01-25T09:06:20.776Z,15.6
2019-01-25T09:07:23.656Z,15.8
2019-01-25T09:08:25.318Z,16.1
2019-01-25T09:09:27.095Z,16.1
2019-01-25T09:10:28.512Z,16.2
2019-01-25T09:11:30.405Z,16.2
2019-01-25T09:12:31.857Z,16.4
2019-01-25T09:13:33.329Z,16.5
2019-01-25T09:14:37.553Z,16.6
2019-01-25T09:15:39.177Z,16.7
2019-01-25T09:16:40.623Z,16.6
2019-01-25T09:17:43.486Z,16.5
2019-01-25T09:19:00.601Z,16.7
2019-01-25T09:20:02.349Z,16.7
2019-01-25T09:21:06.762Z,16.5
2019-01-25T09:22:08.307Z,16.4
2019-01-25T09:23:10.150Z,16.4
2019-01-25T09:24:11.693Z,16.2
2019-01-25T09:25:14.189Z,16.4
2019-01-25T09:26:28.673Z,16.4
2019-01-25T09:27:32.811Z,16.4
2019-01-25T09:28:34.300Z,16.3
2019-01-25T09:29:36.547Z,16.3
2019-01-25T09:30:39.781Z,16
2019-01-25T09:31:41.311Z,16
2019-01-25T09:32:43.740Z,15.8
2019-01-25T09:33:45.339Z,15.7
2019-01-25T09:34:46.784Z,15.6
2019-01-25T09:35:48.614Z,15.6
2019-01-25T09:36:50.032Z,15.5
2019-01-25T09:37:51.514Z,15.3
2019-01-25T09:38:55.253Z,15.4
2019-01-25T09:39:57.910Z,15.4
2019-01-25T09:41:00.754Z,15.3
2019-01-25T09:42:02.190Z,15.5
2019-01-25T09:43:04.201Z,15.5
2019-01-25T09:44:06.047Z,15.6
2019-01-25T09:45:07.528Z,15.6
2019-01-25T09:46:08.972Z,15.6
2019-01-25T09:47:15.518Z,15.8
2019-01-25T09:48:17.914Z,15.9
2019-01-25T09:49:19.404Z,15.8
2019-01-25T09:50:21.041Z,15.8
2019-01-25T09:51:22.514Z,15.7
2019-01-25T09:52:26.219Z,15.8
2019-01-25T09:53:27.978Z,15.7
2019-01-25T09:54:30.538Z,15.6
2019-01-25T09:55:34.078Z,15.6
2019-01-25T09:56:35.892Z,15.7
2019-01-25T09:57:37.395Z,15.7
2019-01-25T09:58:38.968Z,15.7
2019-01-25T09:59:40.428Z,15.7
2019-01-25T10:00:43.172Z,15.8
2019-01-25T10:01:44.810Z,15.8
2019-01-25T10:02:48.604Z,15.7
2019-01-25T10:03:50.313Z,15.7
2019-01-25T10:04:53.940Z,15.8
2019-01-25T10:05:55.901Z,15.8
2019-01-25T10:06:57.344Z,15.8
2019-01-25T10:08:01.666Z,15.7
2019-01-25T10:09:05.554Z,15.7
2019-01-25T10:10:07.086Z,15.7
2019-01-25T10:11:08.847Z,15.6
2019-01-25T10:12:10.312Z,15.7
2019-01-25T10:13:11.920Z,15.5
2019-01-25T10:14:14.082Z,15.6
2019-01-25T10:15:16.642Z,15.6
2019-01-25T10:16:18.802Z,15.9
2019-01-25T10:17:21.376Z,16.3
2019-01-25T10:18:24.746Z,16.2
2019-01-25T10:19:26.611Z,16.5
2019-01-25T10:20:28.261Z,16.5
2019-01-25T10:21:31.336Z,16.8
2019-01-25T10:22:32.851Z,16.7
2019-01-25T10:23:39.033Z,16.6
2019-01-25T10:24:40.562Z,16.5
2019-01-25T10:25:41.986Z,16.6
2019-01-25T10:26:43.860Z,16.8
2019-01-25T10:27:47.194Z,16.7
2019-01-25T10:28:52.977Z,17
2019-01-25T10:29:56.953Z,16.9
2019-01-25T10:31:01.620Z,17.2
2019-01-25T10:32:07.441Z,17.4
2019-01-25T10:33:08.871Z,17.4
2019-01-25T10:34:12.966Z,17.2
2019-01-25T10:35:14.390Z,17.3
2019-01-25T10:36:15.889Z,17.2
2019-01-25T10:37:17.408Z,17.3
2019-01-25T10:38:18.983Z,17.2
2019-01-25T10:39:20.486Z,17.2
2019-01-25T10:40:23.858Z,17.3
2019-01-25T10:41:25.319Z,17.3
2019-01-25T10:42:26.770Z,17.3
2019-01-25T10:43:28.325Z,17.4
2019-01-25T10:44:29.860Z,17.2
2019-01-25T10:45:31.402Z,17.4
2019-01-25T10:46:35.609Z,17.3
2019-01-25T10:47:37.138Z,17.4
2019-01-25T10:48:38.569Z,17.1
2019-01-25T10:49:41.773Z,17.1
2019-01-25T10:50:45.313Z,17
2019-01-25T10:51:47.192Z,16.9
2019-01-25T10:52:48.786Z,17
2019-01-25T10:53:51.378Z,17
2019-01-25T10:54:55.475Z,17.2
2019-01-25T10:55:58.145Z,17
2019-01-25T10:56:59.941Z,16.9
2019-01-25T10:58:03.033Z,16.9
2019-01-25T10:59:05.333Z,16.7
2019-01-25T11:00:07.163Z,16.6
2019-01-25T11:01:08.643Z,16.5
2019-01-25T11:02:10.375Z,16.5
2019-01-25T11:03:11.829Z,16.5
2019-01-25T11:04:15.643Z,16.5
2019-01-25T11:05:17.099Z,16.5
2019-01-25T11:06:18.545Z,16.5
2019-01-25T11:07:20.039Z,16.6
2019-01-25T11:08:21.528Z,16.8
2019-01-25T11:09:25.416Z,16.6
2019-01-25T11:10:30.263Z,16.6
2019-01-25T11:11:32.180Z,16.6
2019-01-25T11:12:33.729Z,16.7
2019-01-25T11:13:35.267Z,16.6
2019-01-25T11:14:36.819Z,16.7
2019-01-25T11:15:38.253Z,16.6
2019-01-25T11:16:42.223Z,16.7
2019-01-25T11:17:44.723Z,16.7
2019-01-25T11:18:46.370Z,16.7
2019-01-25T11:19:47.912Z,16.6
2019-01-25T11:20:49.467Z,16.5
2019-01-25T11:21:53.663Z,16.5
2019-01-25T11:22:55.151Z,16.5
2019-01-25T11:23:56.642Z,16.4
2019-01-25T11:24:58.155Z,16.4
2019-01-25T11:25:59.627Z,16.5
2019-01-25T11:27:01.063Z,16.4
2019-01-25T11:28:03.332Z,16.4
2019-01-25T11:29:04.858Z,16.4
2019-01-25T11:30:09.655Z,16.4
2019-01-25T11:31:11.294Z,16.3
2019-01-25T11:32:12.959Z,16.3
2019-01-25T11:33:14.419Z,16.3
2019-01-25T11:34:17.127Z,16.3
2019-01-25T11:35:20.739Z,16.2
2019-01-25T11:36:23.544Z,16.3
2019-01-25T11:37:35.533Z,16.2
2019-01-25T11:38:37.062Z,16.3
2019-01-25T11:39:38.499Z,16.3
2019-01-25T11:40:43.745Z,16.3
2019-01-25T11:41:45.241Z,16.3
2019-01-25T11:42:46.934Z,16.3
2019-01-25T11:43:49.739Z,16.2
2019-01-25T11:44:53.375Z,16.2
2019-01-25T11:45:57.887Z,16.3
2019-01-25T11:46:59.463Z,16.3
2019-01-25T11:48:01.321Z,16.3
2019-01-25T11:49:02.846Z,16.3
2019-01-25T11:50:05.729Z,16.5
2019-01-25T11:51:09.512Z,16.5
2019-01-25T11:52:11.110Z,16.8
2019-01-25T11:53:13.023Z,16.9
2019-01-25T11:54:15.893Z,17.1
2019-01-25T11:55:17.818Z,17.1
2019-01-25T11:56:19.510Z,17.5
2019-01-25T11:57:21.475Z,17.4
2019-01-25T11:58:22.992Z,17.5
2019-01-25T11:59:27.454Z,17.1
2019-01-25T12:00:32.322Z,17.4
2019-01-25T12:01:34.013Z,17.3
2019-01-25T12:02:35.495Z,17.2
2019-01-25T12:03:37.158Z,17.3
2019-01-25T12:04:39.328Z,17.4
2019-01-25T12:05:40.822Z,17.5
2019-01-25T12:06:43.006Z,17.7
2019-01-25T12:07:44.448Z,17.6
2019-01-25T12:08:48.828Z,17.6
2019-01-25T12:09:53.399Z,17.6
2019-01-25T12:10:58.406Z,17.5
2019-01-25T12:12:04.346Z,17.4
2019-01-25T12:13:05.890Z,17.4
2019-01-25T12:14:16.779Z,17.4
2019-01-25T12:15:21.445Z,17.5
2019-01-25T12:16:22.927Z,17.7
2019-01-25T12:17:24.375Z,17.8
2019-01-25T12:18:25.846Z,17.9
2019-01-25T12:19:28.934Z,17.8
2019-01-25T12:20:30.474Z,17.9
2019-01-25T12:21:31.948Z,18.1
2019-01-25T12:22:33.424Z,18.1
2019-01-25T12:23:38.310Z,18.1
2019-01-25T12:24:39.732Z,18
2019-01-25T12:25:43.404Z,17.9
2019-01-25T12:26:45.029Z,18.1
2019-01-25T12:27:46.938Z,18
2019-01-25T12:28:49.051Z,17.9
2019-01-25T12:29:53.737Z,18
2019-01-25T12:30:56.434Z,18.2
2019-01-25T12:31:58.080Z,18.1
2019-01-25T12:33:07.280Z,18
2019-01-25T12:34:12.706Z,17.8
2019-01-25T12:35:17.538Z,17.9
2019-01-25T12:36:19.155Z,17.8
2019-01-25T12:37:20.765Z,17.6
2019-01-25T12:38:23.064Z,17.6
2019-01-25T12:39:24.608Z,17.5
2019-01-25T12:40:28.497Z,17.4
2019-01-25T12:41:30.213Z,17.4
2019-01-25T12:42:32.982Z,17.4
2019-01-25T12:43:36.789Z,17.4
2019-01-25T12:44:38.363Z,17.5
2019-01-25T12:45:40.000Z,17.5
2019-01-25T12:46:41.651Z,17.4
2019-01-25T12:47:43.505Z,17.4
2019-01-25T12:48:45.078Z,17.4
2019-01-25T12:49:46.591Z,17.3
2019-01-25T12:50:49.189Z,17.4
2019-01-25T12:51:51.049Z,17.3
2019-01-25T12:52:52.592Z,17.3
2019-01-25T12:53:56.547Z,17.4
2019-01-25T12:54:58.354Z,17.3
2019-01-25T12:56:02.444Z,17.4
2019-01-25T12:57:04.047Z,17.3
2019-01-25T12:58:08.984Z,17.3
2019-01-25T12:59:13.681Z,17.3
2019-01-25T13:00:15.423Z,17.3
2019-01-25T13:01:17.385Z,17.3
2019-01-25T13:02:18.988Z,17.2
2019-01-25T13:03:20.729Z,17.2
2019-01-25T13:04:22.429Z,17.1
2019-01-25T13:05:24.183Z,17.1
2019-01-25T13:06:25.699Z,17.1
2019-01-25T13:07:27.311Z,17
2019-01-25T13:08:28.969Z,17
2019-01-25T13:09:30.535Z,17
2019-01-25T13:10:33.212Z,16.9
2019-01-25T13:11:34.913Z,16.9
2019-01-25T13:12:36.457Z,16.9
2019-01-25T13:13:37.989Z,16.9
2019-01-25T13:14:39.495Z,16.8
2019-01-25T13:15:41.357Z,16.8
2019-01-25T13:16:43.831Z,16.9
2019-01-25T13:17:58.031Z,16.9
2019-01-25T13:19:01.192Z,16.8
2019-01-25T13:20:03.334Z,16.8
2019-01-25T13:21:08.937Z,16.8
2019-01-25T13:22:10.457Z,16.8
2019-01-25T13:23:14.622Z,16.8
2019-01-25T13:24:18.588Z,16.8
2019-01-25T13:25:22.845Z,16.8
2019-01-25T13:26:31.301Z,16.8
2019-01-25T13:27:33.413Z,16.8
2019-01-25T13:28:35.163Z,16.7
2019-01-25T13:29:37.129Z,16.7
2019-01-25T13:30:48.235Z,16.7
2019-01-25T13:31:56.019Z,16.6
2019-01-25T13:33:06.486Z,16.6
2019-01-25T13:34:09.750Z,16.7
2019-01-25T13:35:11.363Z,16.6
2019-01-25T13:36:13.031Z,16.6
2019-01-25T13:37:14.881Z,16.6
2019-01-25T13:38:19.509Z,16.6
2019-01-25T13:39:21.480Z,16.6
2019-01-25T13:40:23.652Z,16.7
2019-01-25T13:41:27.460Z,16.7
2019-01-25T13:42:29.394Z,16.7
2019-01-25T13:43:30.891Z,16.7
2019-01-25T13:44:39.967Z,16.7
2019-01-25T13:45:44.090Z,16.7
2019-01-25T13:46:45.643Z,16.8
2019-01-25T13:47:47.303Z,16.8
2019-01-25T13:48:48.777Z,16.8
2019-01-25T13:49:50.365Z,16.8
2019-01-25T13:50:55.566Z,16.7
2019-01-25T13:51:57.167Z,16.8
2019-01-25T13:53:00.936Z,16.9
2019-01-25T13:54:02.490Z,16.8
2019-01-25T13:55:04.135Z,16.9
2019-01-25T13:56:05.583Z,16.9
2019-01-25T13:57:07.102Z,16.8
2019-01-25T13:58:10.579Z,16.9
2019-01-25T13:59:14.007Z,17.2
2019-01-25T14:00:19.018Z,17.4
2019-01-25T14:01:21.278Z,17.5
2019-01-25T14:02:29.514Z,17.5
2019-01-25T14:03:33.522Z,17.5
2019-01-25T14:04:36.840Z,17.3
2019-01-25T14:05:39.966Z,17.5
2019-01-25T14:06:42.640Z,17.6
2019-01-25T14:07:45.854Z,17.7
2019-01-25T14:08:49.218Z,17.7
2019-01-25T14:09:51.815Z,17.7
2019-01-25T14:10:59.749Z,17.7